sensor_id;sensor_type;location;lat;lon;timestamp;P1;durP1;ratioP1;P2;durP2;ratioP2
33780;SDS011;20097;50.832;19.100;2022-07-18T00:03:28;5.03;;;2.20;;
33780;SDS011;20097;50.832;19.100;2022-07-18T00:08:34;11.77;;;2.78;;
33780;SDS011;20097;50.832;19.100;2022-07-18T00:13:38;2.67;;;1.83;;
33780;SDS011;20097;50.832;19.100;2022-07-18T00:18:43;3.67;;;2.40;;
33780;SDS011;20097;50.832;19.100;2022-07-18T00:23:50;7.82;;;3.20;;
33780;SDS011;20097;50.832;19.100;2022-07-18T00:28:54;4.43;;;2.72;;
33780;SDS011;20097;50.832;19.100;2022-07-18T00:33:59;5.43;;;3.03;;
33780;SDS011;20097;50.832;19.100;2022-07-18T00:39:04;8.23;;;4.13;;
33780;SDS011;20097;50.832;19.100;2022-07-18T00:44:15;5.93;;;3.85;;
33780;SDS011;20097;50.832;19.100;2022-07-18T00:49:20;10.13;;;4.35;;
33780;SDS011;20097;50.832;19.100;2022-07-18T00:54:26;8.10;;;4.60;;
33780;SDS011;20097;50.832;19.100;2022-07-18T00:59:33;9.60;;;4.78;;
33780;SDS011;20097;50.832;19.100;2022-07-18T01:04:55;8.80;;;5.05;;
33780;SDS011;20097;50.832;19.100;2022-07-18T01:10:01;9.13;;;5.05;;
33780;SDS011;20097;50.832;19.100;2022-07-18T01:15:08;6.40;;;4.07;;
33780;SDS011;20097;50.832;19.100;2022-07-18T01:20:12;9.48;;;4.50;;
33780;SDS011;20097;50.832;19.100;2022-07-18T01:25:18;8.90;;;4.50;;
33780;SDS011;20097;50.832;19.100;2022-07-18T01:30:23;9.20;;;4.15;;
33780;SDS011;20097;50.832;19.100;2022-07-18T01:35:29;9.68;;;4.40;;
33780;SDS011;20097;50.832;19.100;2022-07-18T01:40:36;7.60;;;4.07;;
33780;SDS011;20097;50.832;19.100;2022-07-18T01:45:43;7.47;;;3.95;;
33780;SDS011;20097;50.832;19.100;2022-07-18T01:50:48;9.90;;;4.32;;
33780;SDS011;20097;50.832;19.100;2022-07-18T01:55:56;6.38;;;4.00;;
33780;SDS011;20097;50.832;19.100;2022-07-18T02:01:04;7.18;;;3.53;;
33780;SDS011;20097;50.832;19.100;2022-07-18T02:06:17;5.00;;;3.45;;
33780;SDS011;20097;50.832;19.100;2022-07-18T02:11:23;7.47;;;4.03;;
33780;SDS011;20097;50.832;19.100;2022-07-18T02:16:31;7.45;;;4.18;;
33780;SDS011;20097;50.832;19.100;2022-07-18T02:21:39;7.80;;;4.13;;
33780;SDS011;20097;50.832;19.100;2022-07-18T02:26:51;5.97;;;3.55;;
33780;SDS011;20097;50.832;19.100;2022-07-18T02:31:58;7.60;;;3.50;;
33780;SDS011;20097;50.832;19.100;2022-07-18T02:37:11;6.40;;;3.08;;
33780;SDS011;20097;50.832;19.100;2022-07-18T02:42:17;6.17;;;3.37;;
33780;SDS011;20097;50.832;19.100;2022-07-18T02:47:24;4.50;;;2.75;;
33780;SDS011;20097;50.832;19.100;2022-07-18T02:52:38;4.43;;;2.50;;
33780;SDS011;20097;50.832;19.100;2022-07-18T02:57:51;7.40;;;3.15;;
33780;SDS011;20097;50.832;19.100;2022-07-18T03:02:58;9.05;;;3.40;;
33780;SDS011;20097;50.832;19.100;2022-07-18T03:08:05;5.22;;;3.10;;
33780;SDS011;20097;50.832;19.100;2022-07-18T03:13:20;5.43;;;3.60;;
33780;SDS011;20097;50.832;19.100;2022-07-18T03:18:27;5.90;;;4.00;;
33780;SDS011;20097;50.832;19.100;2022-07-18T03:23:31;7.23;;;3.80;;
33780;SDS011;20097;50.832;19.100;2022-07-18T03:28:40;6.95;;;4.22;;
33780;SDS011;20097;50.832;19.100;2022-07-18T03:33:56;6.43;;;3.70;;
33780;SDS011;20097;50.832;19.100;2022-07-18T03:39:07;9.77;;;4.30;;
33780;SDS011;20097;50.832;19.100;2022-07-18T03:44:16;7.60;;;3.95;;
33780;SDS011;20097;50.832;19.100;2022-07-18T03:49:24;9.15;;;3.78;;
33780;SDS011;20097;50.832;19.100;2022-07-18T03:54:29;8.93;;;3.60;;
33780;SDS011;20097;50.832;19.100;2022-07-18T03:59:40;8.77;;;4.45;;
33780;SDS011;20097;50.832;19.100;2022-07-18T04:04:44;10.10;;;4.85;;
33780;SDS011;20097;50.832;19.100;2022-07-18T04:09:49;11.68;;;4.30;;
33780;SDS011;20097;50.832;19.100;2022-07-18T04:15:03;6.05;;;4.35;;
33780;SDS011;20097;50.832;19.100;2022-07-18T04:20:11;9.30;;;4.25;;
33780;SDS011;20097;50.832;19.100;2022-07-18T04:25:27;13.43;;;5.03;;
33780;SDS011;20097;50.832;19.100;2022-07-18T04:30:43;7.93;;;4.30;;
33780;SDS011;20097;50.832;19.100;2022-07-18T04:35:51;14.48;;;4.22;;
33780;SDS011;20097;50.832;19.100;2022-07-18T04:40:56;8.18;;;4.05;;
33780;SDS011;20097;50.832;19.100;2022-07-18T04:46:04;8.13;;;4.40;;
33780;SDS011;20097;50.832;19.100;2022-07-18T04:51:11;7.32;;;3.97;;
33780;SDS011;20097;50.832;19.100;2022-07-18T04:56:16;12.25;;;4.85;;
33780;SDS011;20097;50.832;19.100;2022-07-18T05:01:22;10.65;;;4.68;;
33780;SDS011;20097;50.832;19.100;2022-07-18T05:06:29;9.85;;;5.28;;
33780;SDS011;20097;50.832;19.100;2022-07-18T05:11:34;10.60;;;4.80;;
33780;SDS011;20097;50.832;19.100;2022-07-18T05:16:51;9.45;;;4.50;;
33780;SDS011;20097;50.832;19.100;2022-07-18T05:21:56;13.93;;;5.03;;
33780;SDS011;20097;50.832;19.100;2022-07-18T05:27:00;11.77;;;5.13;;
33780;SDS011;20097;50.832;19.100;2022-07-18T05:32:09;14.60;;;5.05;;
33780;SDS011;20097;50.832;19.100;2022-07-18T05:37:21;10.73;;;4.93;;
33780;SDS011;20097;50.832;19.100;2022-07-18T05:42:26;7.05;;;5.10;;
33780;SDS011;20097;50.832;19.100;2022-07-18T05:47:52;11.90;;;5.13;;
33780;SDS011;20097;50.832;19.100;2022-07-18T05:52:57;12.77;;;4.70;;
33780;SDS011;20097;50.832;19.100;2022-07-18T05:58:06;18.95;;;5.82;;
33780;SDS011;20097;50.832;19.100;2022-07-18T06:03:14;13.25;;;4.15;;
33780;SDS011;20097;50.832;19.100;2022-07-18T06:08:19;15.07;;;6.13;;
33780;SDS011;20097;50.832;19.100;2022-07-18T06:13:23;9.20;;;4.28;;
33780;SDS011;20097;50.832;19.100;2022-07-18T06:18:29;6.03;;;4.05;;
33780;SDS011;20097;50.832;19.100;2022-07-18T06:23:34;9.95;;;4.25;;
33780;SDS011;20097;50.832;19.100;2022-07-18T06:28:38;7.95;;;4.43;;
33780;SDS011;20097;50.832;19.100;2022-07-18T06:33:52;9.25;;;5.28;;
33780;SDS011;20097;50.832;19.100;2022-07-18T06:39:03;6.80;;;3.17;;
33780;SDS011;20097;50.832;19.100;2022-07-18T06:44:13;5.88;;;2.25;;
33780;SDS011;20097;50.832;19.100;2022-07-18T06:49:22;4.93;;;2.17;;
33780;SDS011;20097;50.832;19.100;2022-07-18T06:54:28;4.85;;;2.35;;
33780;SDS011;20097;50.832;19.100;2022-07-18T06:59:32;5.70;;;2.13;;
33780;SDS011;20097;50.832;19.100;2022-07-18T07:04:43;4.97;;;1.80;;
33780;SDS011;20097;50.832;19.100;2022-07-18T07:09:48;7.70;;;1.67;;
33780;SDS011;20097;50.832;19.100;2022-07-18T07:14:52;4.25;;;2.28;;
33780;SDS011;20097;50.832;19.100;2022-07-18T07:19:58;3.35;;;1.58;;
33780;SDS011;20097;50.832;19.100;2022-07-18T07:25:02;9.43;;;2.40;;
33780;SDS011;20097;50.832;19.100;2022-07-18T07:30:11;2.90;;;1.40;;
33780;SDS011;20097;50.832;19.100;2022-07-18T07:35:18;8.82;;;1.80;;
33780;SDS011;20097;50.832;19.100;2022-07-18T07:40:25;4.30;;;1.83;;
33780;SDS011;20097;50.832;19.100;2022-07-18T07:45:32;4.38;;;1.75;;
33780;SDS011;20097;50.832;19.100;2022-07-18T07:50:38;5.30;;;1.48;;
33780;SDS011;20097;50.832;19.100;2022-07-18T07:55:43;4.05;;;2.00;;
33780;SDS011;20097;50.832;19.100;2022-07-18T08:00:47;3.45;;;1.60;;
33780;SDS011;20097;50.832;19.100;2022-07-18T08:05:54;2.13;;;1.52;;
33780;SDS011;20097;50.832;19.100;2022-07-18T08:10:58;2.00;;;1.23;;
33780;SDS011;20097;50.832;19.100;2022-07-18T08:16:03;2.78;;;1.67;;
33780;SDS011;20097;50.832;19.100;2022-07-18T08:21:09;2.78;;;1.25;;
33780;SDS011;20097;50.832;19.100;2022-07-18T08:26:14;3.90;;;2.00;;
33780;SDS011;20097;50.832;19.100;2022-07-18T08:36:30;2.78;;;1.73;;
33780;SDS011;20097;50.832;19.100;2022-07-18T08:41:40;1.70;;;1.50;;
33780;SDS011;20097;50.832;19.100;2022-07-18T08:46:49;3.65;;;2.05;;
33780;SDS011;20097;50.832;19.100;2022-07-18T08:51:58;5.25;;;1.50;;
33780;SDS011;20097;50.832;19.100;2022-07-18T08:57:03;2.72;;;1.52;;
33780;SDS011;20097;50.832;19.100;2022-07-18T09:02:07;3.70;;;0.93;;
33780;SDS011;20097;50.832;19.100;2022-07-18T09:07:24;3.08;;;1.33;;
33780;SDS011;20097;50.832;19.100;2022-07-18T09:12:31;2.58;;;1.90;;
33780;SDS011;20097;50.832;19.100;2022-07-18T09:17:41;4.00;;;1.58;;
33780;SDS011;20097;50.832;19.100;2022-07-18T09:22:47;3.10;;;1.42;;
33780;SDS011;20097;50.832;19.100;2022-07-18T09:27:53;6.43;;;1.50;;
33780;SDS011;20097;50.832;19.100;2022-07-18T09:33:05;3.25;;;1.40;;
33780;SDS011;20097;50.832;19.100;2022-07-18T09:38:13;12.02;;;2.20;;
33780;SDS011;20097;50.832;19.100;2022-07-18T09:43:20;3.38;;;1.83;;
33780;SDS011;20097;50.832;19.100;2022-07-18T09:48:26;2.83;;;1.95;;
33780;SDS011;20097;50.832;19.100;2022-07-18T09:53:33;3.17;;;1.30;;
33780;SDS011;20097;50.832;19.100;2022-07-18T09:58:40;3.58;;;1.88;;
33780;SDS011;20097;50.832;19.100;2022-07-18T10:03:54;2.28;;;1.63;;
33780;SDS011;20097;50.832;19.100;2022-07-18T10:09:00;5.55;;;1.38;;
33780;SDS011;20097;50.832;19.100;2022-07-18T10:14:05;2.92;;;1.70;;
33780;SDS011;20097;50.832;19.100;2022-07-18T10:19:10;1.65;;;1.20;;
33780;SDS011;20097;50.832;19.100;2022-07-18T10:24:17;5.38;;;1.55;;
33780;SDS011;20097;50.832;19.100;2022-07-18T10:29:23;6.45;;;1.60;;
33780;SDS011;20097;50.832;19.100;2022-07-18T10:39:37;6.35;;;1.42;;
33780;SDS011;20097;50.832;19.100;2022-07-18T10:44:45;4.38;;;1.35;;
33780;SDS011;20097;50.832;19.100;2022-07-18T10:50:07;4.82;;;1.85;;
33780;SDS011;20097;50.832;19.100;2022-07-18T10:55:30;2.25;;;1.38;;
33780;SDS011;20097;50.832;19.100;2022-07-18T11:00:37;3.13;;;1.33;;
33780;SDS011;20097;50.832;19.100;2022-07-18T11:05:45;3.97;;;1.52;;
33780;SDS011;20097;50.832;19.100;2022-07-18T11:11:06;2.60;;;1.23;;
33780;SDS011;20097;50.832;19.100;2022-07-18T11:16:18;2.42;;;1.10;;
33780;SDS011;20097;50.832;19.100;2022-07-18T11:21:27;2.50;;;1.60;;
33780;SDS011;20097;50.832;19.100;2022-07-18T11:26:44;1.88;;;1.25;;
33780;SDS011;20097;50.832;19.100;2022-07-18T11:31:51;2.75;;;1.60;;
33780;SDS011;20097;50.832;19.100;2022-07-18T11:36:58;1.10;;;0.90;;
33780;SDS011;20097;50.832;19.100;2022-07-18T11:42:05;3.58;;;1.55;;
33780;SDS011;20097;50.832;19.100;2022-07-18T11:47:12;4.68;;;1.30;;
33780;SDS011;20097;50.832;19.100;2022-07-18T11:52:18;2.35;;;1.65;;
33780;SDS011;20097;50.832;19.100;2022-07-18T11:57:28;2.20;;;1.30;;
33780;SDS011;20097;50.832;19.100;2022-07-18T12:08:29;2.50;;;1.40;;
33780;SDS011;20097;50.832;19.100;2022-07-18T12:13:47;3.10;;;1.45;;
33780;SDS011;20097;50.832;19.100;2022-07-18T12:18:58;1.45;;;1.23;;
33780;SDS011;20097;50.832;19.100;2022-07-18T12:24:17;1.50;;;1.20;;
33780;SDS011;20097;50.832;19.100;2022-07-18T12:35:12;2.92;;;1.40;;
33780;SDS011;20097;50.832;19.100;2022-07-18T12:40:23;5.25;;;1.77;;
33780;SDS011;20097;50.832;19.100;2022-07-18T12:45:36;2.67;;;1.38;;
33780;SDS011;20097;50.832;19.100;2022-07-18T12:50:42;3.13;;;1.48;;
33780;SDS011;20097;50.832;19.100;2022-07-18T12:55:47;2.63;;;1.25;;
33780;SDS011;20097;50.832;19.100;2022-07-18T13:00:53;2.38;;;1.42;;
33780;SDS011;20097;50.832;19.100;2022-07-18T13:06:08;2.17;;;1.30;;
33780;SDS011;20097;50.832;19.100;2022-07-18T13:11:21;4.38;;;1.52;;
33780;SDS011;20097;50.832;19.100;2022-07-18T13:16:33;2.50;;;1.95;;
33780;SDS011;20097;50.832;19.100;2022-07-18T13:21:37;2.85;;;1.27;;
33780;SDS011;20097;50.832;19.100;2022-07-18T13:26:45;2.70;;;1.30;;
33780;SDS011;20097;50.832;19.100;2022-07-18T13:31:51;2.38;;;1.75;;
33780;SDS011;20097;50.832;19.100;2022-07-18T13:36:56;4.20;;;1.25;;
33780;SDS011;20097;50.832;19.100;2022-07-18T13:42:01;1.83;;;1.30;;
33780;SDS011;20097;50.832;19.100;2022-07-18T13:47:08;2.58;;;1.48;;
33780;SDS011;20097;50.832;19.100;2022-07-18T13:52:13;2.15;;;1.30;;
33780;SDS011;20097;50.832;19.100;2022-07-18T13:57:17;1.52;;;1.15;;
33780;SDS011;20097;50.832;19.100;2022-07-18T14:02:23;3.17;;;1.27;;
33780;SDS011;20097;50.832;19.100;2022-07-18T14:07:28;2.25;;;1.02;;
33780;SDS011;20097;50.832;19.100;2022-07-18T14:12:35;2.08;;;1.60;;
33780;SDS011;20097;50.832;19.100;2022-07-18T14:17:44;4.45;;;1.77;;
33780;SDS011;20097;50.832;19.100;2022-07-18T14:22:48;4.18;;;1.23;;
33780;SDS011;20097;50.832;19.100;2022-07-18T14:27:52;1.65;;;1.08;;
33780;SDS011;20097;50.832;19.100;2022-07-18T14:32:58;1.95;;;1.30;;
33780;SDS011;20097;50.832;19.100;2022-07-18T14:38:03;3.08;;;1.20;;
33780;SDS011;20097;50.832;19.100;2022-07-18T14:43:07;2.20;;;1.10;;
33780;SDS011;20097;50.832;19.100;2022-07-18T14:48:14;4.85;;;1.42;;
33780;SDS011;20097;50.832;19.100;2022-07-18T14:53:18;2.03;;;1.27;;
33780;SDS011;20097;50.832;19.100;2022-07-18T14:58:24;1.63;;;0.90;;
33780;SDS011;20097;50.832;19.100;2022-07-18T15:03:30;1.70;;;1.17;;
33780;SDS011;20097;50.832;19.100;2022-07-18T15:08:54;2.03;;;1.30;;
33780;SDS011;20097;50.832;19.100;2022-07-18T15:14:02;1.77;;;1.30;;
33780;SDS011;20097;50.832;19.100;2022-07-18T15:19:07;1.23;;;1.00;;
33780;SDS011;20097;50.832;19.100;2022-07-18T15:24:12;3.67;;;1.30;;
33780;SDS011;20097;50.832;19.100;2022-07-18T15:29:16;3.70;;;1.40;;
33780;SDS011;20097;50.832;19.100;2022-07-18T15:34:22;4.00;;;1.50;;
33780;SDS011;20097;50.832;19.100;2022-07-18T15:39:27;1.20;;;1.10;;
33780;SDS011;20097;50.832;19.100;2022-07-18T15:44:31;4.35;;;1.20;;
33780;SDS011;20097;50.832;19.100;2022-07-18T15:49:44;2.70;;;1.00;;
33780;SDS011;20097;50.832;19.100;2022-07-18T15:54:56;2.40;;;1.15;;
33780;SDS011;20097;50.832;19.100;2022-07-18T16:00:00;2.28;;;1.00;;
33780;SDS011;20097;50.832;19.100;2022-07-18T16:05:14;1.33;;;1.20;;
33780;SDS011;20097;50.832;19.100;2022-07-18T16:10:19;2.38;;;1.73;;
33780;SDS011;20097;50.832;19.100;2022-07-18T16:15:23;2.67;;;1.40;;
33780;SDS011;20097;50.832;19.100;2022-07-18T16:20:29;2.70;;;1.60;;
33780;SDS011;20097;50.832;19.100;2022-07-18T16:25:34;3.10;;;1.60;;
33780;SDS011;20097;50.832;19.100;2022-07-18T16:30:40;3.55;;;1.33;;
33780;SDS011;20097;50.832;19.100;2022-07-18T16:35:46;2.28;;;1.65;;
33780;SDS011;20097;50.832;19.100;2022-07-18T16:40:50;2.05;;;1.80;;
33780;SDS011;20097;50.832;19.100;2022-07-18T16:45:55;1.58;;;1.45;;
33780;SDS011;20097;50.832;19.100;2022-07-18T16:51:01;2.15;;;1.80;;
33780;SDS011;20097;50.832;19.100;2022-07-18T16:56:08;3.65;;;1.48;;
33780;SDS011;20097;50.832;19.100;2022-07-18T17:01:15;2.22;;;1.20;;
33780;SDS011;20097;50.832;19.100;2022-07-18T17:06:21;2.17;;;1.70;;
33780;SDS011;20097;50.832;19.100;2022-07-18T17:11:26;5.68;;;2.40;;
33780;SDS011;20097;50.832;19.100;2022-07-18T17:16:38;3.35;;;1.55;;
33780;SDS011;20097;50.832;19.100;2022-07-18T17:21:45;2.53;;;1.75;;
33780;SDS011;20097;50.832;19.100;2022-07-18T17:26:54;2.50;;;1.95;;
33780;SDS011;20097;50.832;19.100;2022-07-18T17:31:59;5.43;;;1.92;;
33780;SDS011;20097;50.832;19.100;2022-07-18T17:37:05;3.67;;;1.50;;
33780;SDS011;20097;50.832;19.100;2022-07-18T17:42:11;2.28;;;1.80;;
33780;SDS011;20097;50.832;19.100;2022-07-18T17:47:16;3.03;;;2.10;;
33780;SDS011;20097;50.832;19.100;2022-07-18T17:52:23;6.65;;;2.70;;
33780;SDS011;20097;50.832;19.100;2022-07-18T17:57:30;5.70;;;2.50;;
33780;SDS011;20097;50.832;19.100;2022-07-18T18:02:34;7.07;;;2.85;;
33780;SDS011;20097;50.832;19.100;2022-07-18T18:07:41;8.63;;;2.47;;
33780;SDS011;20097;50.832;19.100;2022-07-18T18:12:45;2.92;;;2.00;;
33780;SDS011;20097;50.832;19.100;2022-07-18T18:22:56;2.60;;;2.28;;
33780;SDS011;20097;50.832;19.100;2022-07-18T18:28:02;5.88;;;3.00;;
33780;SDS011;20097;50.832;19.100;2022-07-18T18:33:07;5.25;;;3.58;;
33780;SDS011;20097;50.832;19.100;2022-07-18T18:38:13;6.05;;;3.35;;
33780;SDS011;20097;50.832;19.100;2022-07-18T18:43:18;8.38;;;3.40;;
33780;SDS011;20097;50.832;19.100;2022-07-18T18:48:24;6.18;;;3.65;;
33780;SDS011;20097;50.832;19.100;2022-07-18T18:53:30;9.18;;;2.72;;
33780;SDS011;20097;50.832;19.100;2022-07-18T18:58:35;8.63;;;2.35;;
33780;SDS011;20097;50.832;19.100;2022-07-18T19:03:39;2.78;;;2.28;;
33780;SDS011;20097;50.832;19.100;2022-07-18T19:08:46;3.25;;;1.83;;
33780;SDS011;20097;50.832;19.100;2022-07-18T19:13:53;4.97;;;2.20;;
33780;SDS011;20097;50.832;19.100;2022-07-18T19:18:58;5.57;;;2.38;;
33780;SDS011;20097;50.832;19.100;2022-07-18T19:24:04;3.80;;;2.42;;
33780;SDS011;20097;50.832;19.100;2022-07-18T19:29:08;4.18;;;2.80;;
33780;SDS011;20097;50.832;19.100;2022-07-18T19:34:13;7.47;;;3.05;;
33780;SDS011;20097;50.832;19.100;2022-07-18T19:39:18;15.68;;;3.85;;
33780;SDS011;20097;50.832;19.100;2022-07-18T19:44:23;10.63;;;4.00;;
33780;SDS011;20097;50.832;19.100;2022-07-18T19:49:28;13.07;;;4.53;;
33780;SDS011;20097;50.832;19.100;2022-07-18T19:54:34;6.20;;;3.10;;
33780;SDS011;20097;50.832;19.100;2022-07-18T19:59:39;9.93;;;4.05;;
33780;SDS011;20097;50.832;19.100;2022-07-18T20:04:43;6.28;;;4.13;;
33780;SDS011;20097;50.832;19.100;2022-07-18T20:09:49;14.65;;;5.32;;
33780;SDS011;20097;50.832;19.100;2022-07-18T20:14:53;11.02;;;4.63;;
33780;SDS011;20097;50.832;19.100;2022-07-18T20:19:58;11.13;;;5.30;;
33780;SDS011;20097;50.832;19.100;2022-07-18T20:25:04;9.93;;;6.35;;
33780;SDS011;20097;50.832;19.100;2022-07-18T20:30:13;12.88;;;5.05;;
33780;SDS011;20097;50.832;19.100;2022-07-18T20:35:19;12.65;;;6.80;;
33780;SDS011;20097;50.832;19.100;2022-07-18T20:40:25;10.25;;;6.30;;
33780;SDS011;20097;50.832;19.100;2022-07-18T20:45:29;11.75;;;6.35;;
33780;SDS011;20097;50.832;19.100;2022-07-18T20:55:40;11.15;;;6.03;;
33780;SDS011;20097;50.832;19.100;2022-07-18T21:00:44;10.43;;;6.22;;
33780;SDS011;20097;50.832;19.100;2022-07-18T21:05:49;12.30;;;6.65;;
33780;SDS011;20097;50.832;19.100;2022-07-18T21:10:55;10.38;;;5.65;;
33780;SDS011;20097;50.832;19.100;2022-07-18T21:16:00;13.05;;;6.32;;
33780;SDS011;20097;50.832;19.100;2022-07-18T21:21:05;15.05;;;6.97;;
33780;SDS011;20097;50.832;19.100;2022-07-18T21:26:11;12.63;;;7.03;;
33780;SDS011;20097;50.832;19.100;2022-07-18T21:31:17;14.38;;;7.50;;
33780;SDS011;20097;50.832;19.100;2022-07-18T21:36:21;13.32;;;8.25;;
33780;SDS011;20097;50.832;19.100;2022-07-18T21:41:27;12.23;;;6.38;;
33780;SDS011;20097;50.832;19.100;2022-07-18T21:46:32;13.07;;;7.35;;
33780;SDS011;20097;50.832;19.100;2022-07-18T21:51:37;12.40;;;7.47;;
33780;SDS011;20097;50.832;19.100;2022-07-18T21:56:43;12.55;;;7.47;;
33780;SDS011;20097;50.832;19.100;2022-07-18T22:01:47;14.32;;;8.70;;
33780;SDS011;20097;50.832;19.100;2022-07-18T22:06:52;12.45;;;7.75;;
33780;SDS011;20097;50.832;19.100;2022-07-18T22:11:58;18.25;;;9.05;;
33780;SDS011;20097;50.832;19.100;2022-07-18T22:17:03;21.33;;;7.93;;
33780;SDS011;20097;50.832;19.100;2022-07-18T22:22:08;15.52;;;7.97;;
33780;SDS011;20097;50.832;19.100;2022-07-18T22:27:14;15.25;;;9.05;;
33780;SDS011;20097;50.832;19.100;2022-07-18T22:32:18;16.55;;;7.32;;
33780;SDS011;20097;50.832;19.100;2022-07-18T22:37:23;13.95;;;8.73;;
33780;SDS011;20097;50.832;19.100;2022-07-18T22:42:29;15.82;;;7.13;;
33780;SDS011;20097;50.832;19.100;2022-07-18T22:47:34;13.75;;;7.47;;
33780;SDS011;20097;50.832;19.100;2022-07-18T22:52:38;12.68;;;7.18;;
33780;SDS011;20097;50.832;19.100;2022-07-18T22:57:45;11.73;;;7.03;;
33780;SDS011;20097;50.832;19.100;2022-07-18T23:02:50;10.73;;;7.25;;
33780;SDS011;20097;50.832;19.100;2022-07-18T23:07:56;19.42;;;8.52;;
33780;SDS011;20097;50.832;19.100;2022-07-18T23:13:04;11.27;;;6.97;;
33780;SDS011;20097;50.832;19.100;2022-07-18T23:18:10;10.75;;;6.60;;
33780;SDS011;20097;50.832;19.100;2022-07-18T23:28:20;12.38;;;7.30;;
33780;SDS011;20097;50.832;19.100;2022-07-18T23:33:24;13.23;;;7.55;;
33780;SDS011;20097;50.832;19.100;2022-07-18T23:38:28;16.85;;;7.13;;
33780;SDS011;20097;50.832;19.100;2022-07-18T23:48:39;11.88;;;6.32;;
33780;SDS011;20097;50.832;19.100;2022-07-18T23:53:44;13.50;;;6.50;;
33780;SDS011;20097;50.832;19.100;2022-07-18T23:58:50;14.23;;;6.78;;
